createdAt,value
2018-05-25T00:00:03.610Z,119
2018-05-25T00:05:03.620Z,119
2018-05-25T00:10:03.628Z,119
2018-05-25T00:15:03.625Z,119
2018-05-25T00:20:03.624Z,119
2018-05-25T00:25:03.640Z,119
2018-05-25T00:30:03.846Z,119
2018-05-25T00:35:03.632Z,119
2018-05-25T00:40:03.647Z,119
2018-05-25T00:45:03.679Z,119
2018-05-25T00:50:03.637Z,119
2018-05-25T00:55:03.641Z,119
2018-05-25T01:00:03.651Z,119
2018-05-25T01:05:03.660Z,119
2018-05-25T01:10:03.647Z,119
2018-05-25T01:15:03.669Z,119
2018-05-25T01:20:03.651Z,119
2018-05-25T01:25:03.657Z,119
2018-05-25T01:30:03.671Z,119
2018-05-25T01:35:03.661Z,119
2018-05-25T01:40:03.662Z,119
2018-05-25T01:45:03.681Z,119
2018-05-25T01:50:03.668Z,119
2018-05-25T01:55:03.667Z,119
2018-05-25T02:00:03.680Z,119
2018-05-25T02:05:03.679Z,119
2018-05-25T02:10:03.697Z,119
2018-05-25T02:15:03.689Z,119
2018-05-25T02:20:03.688Z,119
2018-05-25T02:25:03.685Z,119
2018-05-25T02:30:03.696Z,119
2018-05-25T02:35:03.692Z,119
2018-05-25T02:40:03.706Z,119
2018-05-25T02:45:03.706Z,119
2018-05-25T02:50:03.712Z,119
2018-05-25T02:55:03.719Z,119
2018-05-25T03:00:03.731Z,119
2018-05-25T03:05:03.718Z,119
2018-05-25T03:10:03.715Z,119
2018-05-25T03:15:03.722Z,119
2018-05-25T03:20:03.714Z,119
2018-05-25T03:25:03.720Z,119
2018-05-25T03:30:03.747Z,119
2018-05-25T03:35:03.739Z,119
2018-05-25T03:40:03.743Z,119
2018-05-25T03:45:03.730Z,119
2018-05-25T03:50:03.750Z,119
2018-05-25T03:55:03.736Z,119
2018-05-25T04:00:03.738Z,119
2018-05-25T04:05:03.761Z,119
2018-05-25T04:10:03.748Z,119
2018-05-25T04:15:03.744Z,119
2018-05-25T04:20:03.758Z,119
2018-05-25T04:25:03.760Z,119
2018-05-25T04:30:03.761Z,119
2018-05-25T04:35:03.756Z,119
2018-05-25T04:40:03.772Z,119
2018-05-25T04:45:03.761Z,119
2018-05-25T04:50:03.768Z,119
2018-05-25T04:55:03.788Z,119
2018-05-25T05:00:03.775Z,119
2018-05-25T05:05:03.900Z,119
2018-05-25T05:10:03.785Z,119
2018-05-25T05:15:03.773Z,119
2018-05-25T05:20:03.781Z,119
2018-05-25T05:25:03.786Z,119
2018-05-25T05:30:03.787Z,119
2018-05-25T05:35:03.797Z,119
2018-05-25T05:40:03.802Z,119
2018-05-25T05:45:03.809Z,119
2018-05-25T05:50:03.814Z,119
2018-05-25T05:55:03.803Z,119
2018-05-25T06:00:03.817Z,119
2018-05-25T06:05:03.803Z,119
2018-05-25T06:10:03.802Z,119
2018-05-25T06:15:03.827Z,119
2018-05-25T06:20:03.988Z,119
2018-05-25T06:25:03.816Z,119
2018-05-25T06:30:03.828Z,119
2018-05-25T06:35:03.821Z,119
2018-05-25T06:40:03.824Z,119
2018-05-25T06:45:03.844Z,119
2018-05-25T06:50:03.825Z,116.81
2018-05-25T06:55:03.856Z,113.9
2018-05-25T07:00:03.836Z,105.31
2018-05-25T07:05:03.856Z,101.9
2018-05-25T07:10:03.844Z,96.41
2018-05-25T07:15:03.869Z,90.44
2018-05-25T07:20:03.857Z,89.65
2018-05-25T07:25:03.846Z,86.7
2018-05-25T07:30:03.853Z,81.98
2018-05-25T07:35:03.874Z,80.32
2018-05-25T07:40:03.864Z,80.66
2018-05-25T07:45:03.856Z,78.35
2018-05-25T07:50:03.868Z,76.74
2018-05-25T07:55:03.861Z,75.08
2018-05-25T08:00:03.872Z,71.28
2018-05-25T08:05:03.887Z,70.27
2018-05-25T08:10:03.870Z,69.52
2018-05-25T08:15:03.881Z,66.09
2018-05-25T08:20:03.891Z,67.21
2018-05-25T08:25:03.879Z,63.71
2018-05-25T08:30:03.897Z,63.32
2018-05-25T08:35:03.890Z,64.18
2018-05-25T08:40:03.911Z,62.12
2018-05-25T08:45:03.906Z,60.37
2018-05-25T08:50:03.906Z,62.23
2018-05-25T08:55:04.145Z,62.46
2018-05-25T09:00:03.902Z,60.13
2018-05-25T09:05:03.914Z,58.16
2018-05-25T09:10:03.912Z,54.79
2018-05-25T09:15:03.917Z,55.02
2018-05-25T09:20:03.920Z,52.13
2018-05-25T09:25:03.924Z,54.42
2018-05-25T09:30:03.909Z,52.44
2018-05-25T09:35:03.931Z,52.38
2018-05-25T09:40:03.936Z,51.39
2018-05-25T09:45:03.929Z,48.26
2018-05-25T09:50:03.942Z,52.32
2018-05-25T09:55:03.943Z,52.99
2018-05-25T10:00:03.944Z,52.57
2018-05-25T10:05:03.945Z,53.97
2018-05-25T10:10:03.935Z,51.77
2018-05-25T10:15:03.942Z,49.63
2018-05-25T10:20:03.977Z,49.07
2018-05-25T10:25:04.001Z,49.31
2018-05-25T10:30:03.950Z,48.84
2018-05-25T10:35:04.050Z,47.07
2018-05-25T10:40:03.973Z,51.11
2018-05-25T10:45:03.955Z,48.05
2018-05-25T10:50:03.975Z,51.67
2018-05-25T10:55:03.954Z,49.17
2018-05-25T11:00:03.964Z,49.91
2018-05-25T11:05:03.996Z,48.94
2018-05-25T11:10:04.086Z,43.68
2018-05-25T11:15:03.987Z,39.69
2018-05-25T11:20:03.987Z,41.35
2018-05-25T11:25:03.998Z,37.91
2018-05-25T11:30:03.997Z,37.07
2018-05-25T11:35:03.985Z,37.87
2018-05-25T11:40:03.998Z,35.48
2018-05-25T11:45:03.994Z,39.76
2018-05-25T11:50:03.990Z,37.19
2018-05-25T11:55:03.999Z,36.22
2018-05-25T12:00:04.006Z,36.12
2018-05-25T12:05:04.011Z,36.1
2018-05-25T12:10:04.001Z,35.89
2018-05-25T12:15:04.010Z,38.25
2018-05-25T12:20:04.009Z,34.3
2018-05-25T12:25:04.016Z,37.08
2018-05-25T12:30:04.016Z,40.55
2018-05-25T12:35:04.031Z,40.59
2018-05-25T12:40:04.045Z,37.83
2018-05-25T12:45:04.021Z,35.08
2018-05-25T12:50:04.036Z,32.91
2018-05-25T12:55:04.022Z,33.46
2018-05-25T13:00:04.031Z,36.64
2018-05-25T13:05:04.038Z,33.94
2018-05-25T13:10:04.034Z,33.53
2018-05-25T13:15:04.039Z,34.45
2018-05-25T13:20:04.048Z,36.71
2018-05-25T13:25:04.058Z,37.33
2018-05-25T13:30:04.039Z,38.19
2018-05-25T13:35:04.040Z,37.7
2018-05-25T13:40:04.056Z,38.67
2018-05-25T13:45:04.045Z,35.45
2018-05-25T13:50:04.046Z,34.81
2018-05-25T13:55:04.071Z,37.22
2018-05-25T14:00:04.065Z,37.51
2018-05-25T14:05:04.057Z,36.26
2018-05-25T14:10:04.065Z,38.34
2018-05-25T14:15:04.067Z,39.19
2018-05-25T14:20:04.069Z,41.15
2018-05-25T14:25:04.104Z,39.74
2018-05-25T14:30:04.067Z,39.27
2018-05-25T14:35:04.075Z,39.54
2018-05-25T14:40:04.094Z,34.65
2018-05-25T14:45:04.078Z,32.64
2018-05-25T14:50:04.095Z,32.52
2018-05-25T14:55:04.113Z,33.8
2018-05-25T15:00:04.097Z,35.67
2018-05-25T15:05:04.092Z,31.43
2018-05-25T15:10:04.095Z,26.99
2018-05-25T15:15:04.109Z,26.8
2018-05-25T15:20:04.094Z,25.6
2018-05-25T15:25:04.225Z,27.82
2018-05-25T15:30:04.123Z,25.27
2018-05-25T15:35:04.109Z,23.92
2018-05-25T15:40:04.121Z,23.33
2018-05-25T15:45:04.120Z,25.9
2018-05-25T15:50:04.110Z,25.44
2018-05-25T15:55:04.121Z,26.01
2018-05-25T16:00:04.129Z,25.06
2018-05-25T16:05:04.127Z,26.6
2018-05-25T16:10:04.141Z,26.49
2018-05-25T16:15:04.148Z,27.83
2018-05-25T16:20:04.137Z,28.63
2018-05-25T16:25:04.130Z,29.27
2018-05-25T16:30:04.156Z,32.04
2018-05-25T16:35:04.147Z,33.88
2018-05-25T16:40:04.143Z,35.77
2018-05-25T16:45:04.155Z,36.35
2018-05-25T16:50:04.273Z,38.62
2018-05-25T16:55:04.162Z,43.34
2018-05-25T17:00:04.155Z,41.21
2018-05-25T17:05:04.338Z,42.64
2018-05-25T17:10:04.156Z,44.01
2018-05-25T17:15:04.164Z,45.72
2018-05-25T17:20:04.169Z,43.79
2018-05-25T17:25:04.179Z,46.66
2018-05-25T17:30:04.173Z,46.56
2018-05-25T17:35:04.170Z,47.78
2018-05-25T17:40:04.176Z,48.5
2018-05-25T17:45:04.187Z,49.48
2018-05-25T17:50:04.180Z,52.57
2018-05-25T17:55:04.191Z,53.35
2018-05-25T18:00:04.200Z,55.2
2018-05-25T18:05:04.200Z,55.73
2018-05-25T18:10:04.223Z,53.93
2018-05-25T18:15:04.194Z,55.6
2018-05-25T18:20:04.198Z,58.17
2018-05-25T18:25:04.197Z,58.75
2018-05-25T18:30:04.210Z,62.61
2018-05-25T18:35:04.203Z,65.04
2018-05-25T18:40:04.211Z,68.1
2018-05-25T18:45:04.315Z,67.68
2018-05-25T18:50:04.222Z,69.24
2018-05-25T18:55:04.219Z,78.14
2018-05-25T19:00:04.214Z,80.73
2018-05-25T19:05:04.215Z,77.28
2018-05-25T19:10:04.226Z,81.12
2018-05-25T19:15:04.220Z,85.56
2018-05-25T19:20:04.219Z,87.65
2018-05-25T19:25:04.230Z,94.89
2018-05-25T19:30:04.237Z,92.87
2018-05-25T19:35:04.228Z,91.63
2018-05-25T19:40:04.256Z,93.07
2018-05-25T19:45:04.242Z,85.83
2018-05-25T19:50:04.240Z,85.4
2018-05-25T19:55:04.256Z,87.17
2018-05-25T20:00:04.241Z,84.66
2018-05-25T20:05:04.246Z,83.5
2018-05-25T20:10:04.258Z,82.15
2018-05-25T20:15:04.250Z,80.85
2018-05-25T20:20:04.257Z,78.41
2018-05-25T20:25:04.263Z,76.78
2018-05-25T20:30:04.258Z,78.41
2018-05-25T20:35:04.357Z,78.54
2018-05-25T20:40:04.285Z,78.01
2018-05-25T20:45:04.265Z,79.93
2018-05-25T20:50:04.269Z,80.29
2018-05-25T20:55:04.286Z,82.06
2018-05-25T21:00:04.279Z,82.44
2018-05-25T21:05:04.276Z,83.16
2018-05-25T21:10:04.307Z,85.15
2018-05-25T21:15:04.394Z,84.09
2018-05-25T21:20:04.282Z,86.68
2018-05-25T21:25:04.342Z,87.79
2018-05-25T21:30:04.412Z,84.78
2018-05-25T21:35:04.289Z,84.69
2018-05-25T21:40:04.302Z,83.2
2018-05-25T21:45:04.300Z,84.05
2018-05-25T21:50:04.305Z,82.31
2018-05-25T21:55:04.327Z,82.83
2018-05-25T22:00:04.314Z,83.28
2018-05-25T22:05:04.359Z,82.61
2018-05-25T22:10:04.320Z,84.46
2018-05-25T22:15:04.324Z,85.43
2018-05-25T22:20:04.327Z,88.18
2018-05-25T22:25:04.325Z,88.49
2018-05-25T22:30:04.343Z,89.14
2018-05-25T22:35:04.330Z,91.94
2018-05-25T22:40:04.332Z,91.84
2018-05-25T22:45:04.353Z,93.59
2018-05-25T22:50:04.346Z,96.65
2018-05-25T22:55:04.339Z,99
2018-05-25T23:00:04.397Z,99.76
2018-05-25T23:05:04.343Z,100.88
2018-05-25T23:10:04.341Z,101.59
2018-05-25T23:15:04.359Z,103.19
2018-05-25T23:20:04.360Z,104.45
2018-05-25T23:25:04.360Z,105.19
2018-05-25T23:30:04.377Z,106.39
2018-05-25T23:35:04.365Z,109.82
2018-05-25T23:40:04.381Z,111
2018-05-25T23:45:04.373Z,114.16
2018-05-25T23:50:04.388Z,116.31
2018-05-25T23:55:04.370Z,119
